Josephine, WV (25857)

6:12 PM EST on December 20, 2014 (GMT -0500)
Winterplace Ski Resort | Change Station
CLOSE
Current Station
Personal Weather Station
Location: Ghent, WV
Elevation: 3084 ft
Nearby Weather Stations

Elev 3084 ft 37.60 °N, 81.12 °W | Updated 13 minutes ago

Overcast
Overcast
32.0 °F
Feels Like 32 °F
N
0.0
Wind Variable Wind from North
Gusts 0.0 mph

Today
High -- | Low -- °F
--% Chance of Precip.
Yesterday
High -- | Low -- °F
Precip. -- in
7:35 AM 5:09 PM
Waning Crescent, 2% visible
Pressure 30.25 in
Visibility 10.0 miles
Clouds Overcast 1400 ft
Windchill 32 °F
Dew Point 29 °F
Humidity 90%
Rainfall 0.05 in
Snow Depth Not available.
UV 0 out of 12
Pollen .10 out of 12
Air Quality Not available.
Flu Activity Not available.
METAR KBKW 202251Z AUTO 02003KT 10SM OVC014 01/M03 A3015 RMK AO2 SLP242 T00111033

More Conditions Fewer Conditions

Pressure 30.25 in
Visibility 10.0 miles
Clouds Overcast 1400 ft
Windchill 32 °F
Dew Point 29 °F
Humidity 90%
Rainfall 0.05 in
Snow Depth Not available.
UV 0 out of 12
Pollen .10 out of 12
Air Quality Not available.
Flu Activity Not available.
METAR KBKW 202251Z AUTO 02003KT 10SM OVC014 01/M03 A3015 RMK AO2 SLP242 T00111033

More Conditions Fewer Conditions

10-Day Weather Forecast

Almanac

Astronomy

Dec. 20, 2014 Rise Set
Actual Time
Civil Twilight
Nautical Twilight
Astronomical Twilight
Moon
Length of Visible Light
Length of Day
Tomorrow will be .
, % of the Moon is Illuminated

Today's Extremes

State Highs State Lows

Community

WunderPhotos

Upload Photos

1,779,311 photos uploaded!

WunderBlogs® & News

Nearby

Air Quality

  Air Quality AQ Index Pollutant
Not available.

Snow Depth

Station Depth Elevation

Earthquake Activity

City Distance Mag. Time & Date
Minimum magnitude displayed is 2.5.

Coastal Water Temperatures

Place Temperature

Nearby Weather Stations